Terminal Aerodrome Forecast
Issued by NWS Portland, OR

Home | Current Version | Previous Version | Text Only | Print | Product List | Glossary On
Versions: 1 2 3 4 5 6 7 8 9 10 11 12 13 14 15 16 17 18 19 20 21 22 23 24 25 26 27 28 29 30 31 32 33 34 35 36 37 38 39 40 41 42 43 44 45 46 47 48
000
FTUS46 KPQR 132002 AAA
TAFAST
TAF AMD
KAST 132002Z 1320/1418 19014G22KT 6SM -RA SCT020 OVC040
     FM132100 19015G25KT 4SM -RA BR BKN015 OVC025
     FM132300 18018G30KT 2SM RA BR BKN007 OVC015
     FM140500 20015G23KT 3SM RA BR SCT007 OVC015
     FM141400 24014G22KT 5SM -RA BR BKN012 OVC025=

USA.gov is the U.S. government's official web portal to all federal, state and local government web resources and services.